SARI METAR and TAF weather

Enter ICAO airport designator
Station Type Date Time Source
SARI METAR 2020/09/18 16:00 UTC NOAA

SARI 181600Z VRB03KT 9999 SCT025 27/19 Q1013


Station Type Date Time Source
SARI Decoded METAR 2020/09/18 16:00 UTC NOAA

Iguazu Aerodrome, Argentina (SARI) 25-44S 054-28W 270M
Sep 18, 2020 - 12:00 PM EDT / 2020.09.18 1600 UTC
Wind: Variable at 3 MPH (3 KT):0
Visibility: greater than 7 mile(s):0
Sky conditions: partly cloudy
Temperature: 80 F (27 C)
Dew Point: 66 F (19 C)
Relative Humidity: 61%
Pressure (altimeter): 29.91 in. Hg (1013 hPa)
ob: SARI 181600Z VRB03KT 9999 SCT025 27/19 Q1013
cycle: 16

Station Type Date Time Source
SARI TAF 2020/09/18 12:19 UTC NOAA

TAF SARI 181100Z 1812/1912 00000KT 0500 FG BKN003 TX30/1818Z TN15/1910Z
BECMG 1813/1814 02010KT 8000 NSC
BECMG 1906/1908 VRB02KT 0500 FG NSC

Example: see airport list